Stad Amsterdam — PECA — position and weather

sailwx.info

Track history (hours):
 
Tides and Currents Weather Stations Pressure Air Temp Water Temp Dewpoint Dewpoint Depression Visibility Wind Speed Wind Dir Waves Ship Positions

Stad Amsterdam (Netherlands)

Ship's website: http://www.stadamsterdam.com/content/home/index.xml

Last reported at 2019-Oct-28 10:06 UTC. Time now 2019-Nov-17 17:34 UTC.
Position N 52°58' E 004°46'.
Warning: this ship's position is 20 days out of date.

Length 76 m; beam 10 m.

Type: Sailing vessel. MMSI: 246494000.

Date/timePositionNaut miles runAvg speedWind from/ knotsBaromVisibWave heightAir tempDewpointWater temp
2019-Oct-28 10:06N 52°58' E 004°46'0 0.5
2019-Oct-28 09:47N 52°58' E 004°47'2 1.8
2019-Oct-28 08:44N 52°58' E 004°44'1 3.3
2019-Oct-28 08:25N 52°57' E 004°42'2 4.1
2019-Oct-28 07:57N 52°56' E 004°40'3 4.7
2019-Oct-28 07:24N 52°53' E 004°39'4 5.1
2019-Oct-28 06:41N 52°50' E 004°36'1 5.7
2019-Oct-28 06:29N 52°49' E 004°36'3 5.8
2019-Oct-28 06:00N 52°46' E 004°35'3 6.7
2019-Oct-28 05:30N 52°43' E 004°34'4 7.7
2019-Oct-28 05:00N 52°39' E 004°34'4 8.0
2019-Oct-28 04:30N 52°35' E 004°33'4 8.0
2019-Oct-28 04:00N 52°31' E 004°32'3 6.6
2019-Oct-28 03:31N 52°28' E 004°33'2 3.2
2019-Oct-28 03:00N 52°28' E 004°36'5 5.3
2019-Oct-28 02:00N 52°26' E 004°44'4 7.5
2019-Oct-28 01:30N 52°25' E 004°50'3 6.0
2019-Oct-28 01:01N 52°24' E 004°54'1 2.3
2019-Oct-28 00:30N 52°23' E 004°55'0 0.2
2019-Oct-28 00:00N 52°22' E 004°55'0 0.4
2019-Oct-27 23:30N 52°22' E 004°55'0 0.0
2019-Oct-27 22:57N 52°22' E 004°55'0 0.0
2019-Oct-27 22:30N 52°22' E 004°55'0 0.0
2019-Oct-27 22:00N 52°22' E 004°55'0 0.0
2019-Oct-27 21:30N 52°22' E 004°55'0 0.0
2019-Oct-27 21:00N 52°22' E 004°55'0 0.0
2019-Oct-27 20:27N 52°22' E 004°55'0 0.0
2019-Oct-27 19:51N 52°22' E 004°55'0 0.0
2019-Oct-27 19:30N 52°22' E 004°55'0 0.0
2019-Oct-27 19:00N 52°22' E 004°55'0 0.0
2019-Oct-27 18:27N 52°22' E 004°55'0 0.0
2019-Oct-27 17:57N 52°22' E 004°55'0 0.0
2019-Oct-27 17:30N 52°22' E 004°55'0 0.0
2019-Oct-27 17:00N 52°22' E 004°55'0 0.0
2019-Oct-27 16:27N 52°22' E 004°55'0 0.0
2019-Oct-27 16:00N 52°22' E 004°55'0 0.0
2019-Oct-27 15:27N 52°22' E 004°55'0 0.0
2019-Oct-27 14:54N 52°22' E 004°55'0 0.0
2019-Oct-27 14:30N 52°22' E 004°55'0 0.0
2019-Oct-27 14:00N 52°22' E 004°55'0 0.0
2019-Oct-27 13:30N 52°22' E 004°55'0 0.0
2019-Oct-27 13:00N 52°22' E 004°55'0 0.0
2019-Oct-27 12:27N 52°22' E 004°55'0 0.0
2019-Oct-27 12:00N 52°22' E 004°55'0 0.0
2019-Oct-27 11:30N 52°22' E 004°55'0 0.0
2019-Oct-27 11:00N 52°22' E 004°55'0 0.0
2019-Oct-27 10:30N 52°22' E 004°55'0 0.0
2019-Oct-27 10:00N 52°22' E 004°55'0 0.0
2019-Oct-27 09:30N 52°22' E 004°55'0 0.0
2019-Oct-27 09:00N 52°22' E 004°55'0 0.0
2019-Oct-27 08:27N 52°22' E 004°55'0 0.0
2019-Oct-27 07:57N 52°22' E 004°55'0 0.0
2019-Oct-27 07:30N 52°22' E 004°55'0 0.0
2019-Oct-27 07:00N 52°22' E 004°55'0 0.0
2019-Oct-27 06:27N 52°22' E 004°55'0 0.0
2019-Oct-27 06:00N 52°22' E 004°55'0 0.0
2019-Oct-27 05:30N 52°22' E 004°55'0 0.0
2019-Oct-27 05:00N 52°22' E 004°55'0 0.0
2019-Oct-27 04:30N 52°22' E 004°55'0 0.0
2019-Oct-27 04:00N 52°22' E 004°55'0 0.0
2019-Oct-27 02:30N 52°22' E 004°55'0 0.0
2019-Oct-27 02:00N 52°22' E 004°55'0 0.0
2019-Oct-27 01:27N 52°22' E 004°55'0 0.0
2019-Oct-27 00:54N 52°22' E 004°55'0 0.0
2019-Oct-27 00:30N 52°22' E 004°55'0 0.4
2019-Oct-27 00:00N 52°23' E 004°55'0 0.0
2019-Oct-26 23:30N 52°23' E 004°55'0 0.3
2019-Oct-26 23:00N 52°22' E 004°55'0 0.2
2019-Oct-26 22:28N 52°22' E 004°55'0 0.0
2019-Oct-26 21:55N 52°22' E 004°55'0 0.0
2019-Oct-26 21:28N 52°22' E 004°55'0 0.0
2019-Oct-26 20:58N 52°22' E 004°55'0 0.0
2019-Oct-26 20:28N 52°22' E 004°55'0 0.0
2019-Oct-26 19:52N 52°22' E 004°55'0 0.0
2019-Oct-26 19:25N 52°22' E 004°55'0 0.0
2019-Oct-26 18:58N 52°22' E 004°55'0 0.0
2019-Oct-26 18:28N 52°22' E 004°55'0 0.0
2019-Oct-26 17:58N 52°22' E 004°55'0 0.0
2019-Oct-26 17:28N 52°22' E 004°55'0 0.0
2019-Oct-26 16:58N 52°22' E 004°55'0 0.0
2019-Oct-26 16:28N 52°22' E 004°55'0 0.0
2019-Oct-26 15:49N 52°22' E 004°55'0 0.0
2019-Oct-26 15:28N 52°22' E 004°55'0 0.0
2019-Oct-26 14:58N 52°22' E 004°55'0 0.0
2019-Oct-26 14:28N 52°22' E 004°55'0 0.0
2019-Oct-26 13:58N 52°22' E 004°55'0 0.0
2019-Oct-26 13:28N 52°22' E 004°55'0 0.0
2019-Oct-26 12:55N 52°22' E 004°55'0 0.0
2019-Oct-26 12:28N 52°22' E 004°55'0 0.0
2019-Oct-26 11:58N 52°22' E 004°55'0 0.0
2019-Oct-26 11:28N 52°22' E 004°55'0 0.0
2019-Oct-26 10:58N 52°22' E 004°55'0 0.0
2019-Oct-26 10:28N 52°22' E 004°55'0 0.0
2019-Oct-26 09:58N 52°22' E 004°55'0 0.0
2019-Oct-26 09:28N 52°22' E 004°55'0 0.0
2019-Oct-26 08:58N 52°22' E 004°55'0 0.0
2019-Oct-26 08:28N 52°22' E 004°55'0 0.0
2019-Oct-26 07:58N 52°22' E 004°55'0 0.0
2019-Oct-26 07:25N 52°22' E 004°55'0 0.0
2019-Oct-26 06:55N 52°22' E 004°55'0 0.0
2019-Oct-26 06:28N 52°22' E 004°55'0 0.0
2019-Oct-26 05:58N 52°22' E 004°55'0 0.0
2019-Oct-26 05:28N 52°22' E 004°55'0 0.0
2019-Oct-26 04:58N 52°22' E 004°55'0 0.0
2019-Oct-26 04:28N 52°22' E 004°55'0 0.0
2019-Oct-26 03:52N 52°22' E 004°55'0 0.0
2019-Oct-26 03:28N 52°22' E 004°55'0 0.0
2019-Oct-26 02:58N 52°22' E 004°55'0 0.0
2019-Oct-26 02:28N 52°22' E 004°55'0 0.0
2019-Oct-26 01:55N 52°22' E 004°55'0 0.0
2019-Oct-26 01:28N 52°22' E 004°55'0 0.0
2019-Oct-26 00:58N 52°22' E 004°55'0 0.0
2019-Oct-26 00:28N 52°22' E 004°55'0 0.0
2019-Oct-25 23:58N 52°22' E 004°55'0 0.0
2019-Oct-25 23:28N 52°22' E 004°55'0 0.0
2019-Oct-25 22:58N 52°22' E 004°55'0 0.0
2019-Oct-25 22:28N 52°22' E 004°55'0 0.0
2019-Oct-25 21:58N 52°22' E 004°55'0 0.0
2019-Oct-25 21:25N 52°22' E 004°55'0 0.0
2019-Oct-25 20:58N 52°22' E 004°55'0 0.0
2019-Oct-25 20:28N 52°22' E 004°55'0 0.0
2019-Oct-25 19:58N 52°22' E 004°55'0 0.0
2019-Oct-25 19:22N 52°22' E 004°55'0 0.0
2019-Oct-25 18:58N 52°22' E 004°55'0 0.0
2019-Oct-25 18:28N 52°22' E 004°55'0 0.0
2019-Oct-25 17:58N 52°22' E 004°55'0 0.0
2019-Oct-25 17:28N 52°22' E 004°55'0 0.0
2019-Oct-25 16:52N 52°22' E 004°55'0 0.0
2019-Oct-25 16:28N 52°22' E 004°55'0 0.0
2019-Oct-25 15:58N 52°22' E 004°55'0 0.0
2019-Oct-25 15:25N 52°22' E 004°55'0 0.0
2019-Oct-25 14:58N 52°22' E 004°55'0 0.0
2019-Oct-25 14:28N 52°22' E 004°55'0 0.0
2019-Oct-25 13:58N 52°22' E 004°55'0 0.0
2019-Oct-25 13:28N 52°22' E 004°55'0 0.0
2019-Oct-25 12:58N 52°22' E 004°55'0 0.0
2019-Oct-25 12:28N 52°22' E 004°55'0 0.0
2019-Oct-25 11:58N 52°22' E 004°55'0 0.0
2019-Oct-25 11:25N 52°22' E 004°55'0 0.0
2019-Oct-25 10:49N 52°22' E 004°55'0 0.0
2019-Oct-25 10:28N 52°22' E 004°55'0 0.0
2019-Oct-25 09:58N 52°22' E 004°55'0 0.0
2019-Oct-25 09:28N 52°22' E 004°55'0 0.0
2019-Oct-25 08:58N 52°22' E 004°55'0 0.0
2019-Oct-25 08:28N 52°22' E 004°55'0 0.0
2019-Oct-25 07:58N 52°22' E 004°55'0 0.0
2019-Oct-25 07:13N 52°22' E 004°55'0 0.0
2019-Oct-25 06:43N 52°22' E 004°55'0 0.0
2019-Oct-25 06:28N 52°22' E 004°55'0 0.0
2019-Oct-25 05:55N 52°22' E 004°55'0 0.0
2019-Oct-25 05:16N 52°22' E 004°55'0 0.0
2019-Oct-25 04:58N 52°22' E 004°55'0 0.0
2019-Oct-25 04:25N 52°22' E 004°55'0 0.0
2019-Oct-25 03:55N 52°22' E 004°55'0 0.0
2019-Oct-25 03:25N 52°22' E 004°55'0 0.0
2019-Oct-25 02:58N 52°22' E 004°55'0 0.0
2019-Oct-25 02:28N 52°22' E 004°55'0 0.0
2019-Oct-25 01:58N 52°22' E 004°55'0 0.0
2019-Oct-25 01:28N 52°22' E 004°55'0 0.0
2019-Oct-25 00:55N 52°22' E 004°55'0 0.0
2019-Oct-25 00:28N 52°22' E 004°55'0 0.0
2019-Oct-24 23:58N 52°22' E 004°55'0 0.0
2019-Oct-24 23:28N 52°22' E 004°55'0 0.0
2019-Oct-24 22:55N 52°22' E 004°55'0 0.0
2019-Oct-24 22:28N 52°22' E 004°55'0 0.0
2019-Oct-24 21:55N 52°22' E 004°55'0 0.0
2019-Oct-24 21:28N 52°22' E 004°55'0 0.0
2019-Oct-24 20:55N 52°22' E 004°55'0 0.0
2019-Oct-24 20:25N 52°22' E 004°55'0 0.0
2019-Oct-24 19:58N 52°22' E 004°55'0 0.0
2019-Oct-24 19:28N 52°22' E 004°55'0 0.0
2019-Oct-24 18:58N 52°22' E 004°55'0 0.0
2019-Oct-24 18:25N 52°22' E 004°55'0 0.0
2019-Oct-24 17:58N 52°22' E 004°55'0 0.0
2019-Oct-24 17:25N 52°22' E 004°55'0 0.0
2019-Oct-24 16:55N 52°22' E 004°55'0 0.0
2019-Oct-24 16:28N 52°22' E 004°55'0 0.0
2019-Oct-24 15:58N 52°22' E 004°55'0 0.0
2019-Oct-24 15:28N 52°22' E 004°55'0 0.0
2019-Oct-24 14:58N 52°22' E 004°55'0 0.0
2019-Oct-24 14:25N 52°22' E 004°55'0 0.0
2019-Oct-24 13:55N 52°22' E 004°55'0 0.0
2019-Oct-24 13:28N 52°22' E 004°55'0 0.0
2019-Oct-24 12:58N 52°22' E 004°55'0 0.0
2019-Oct-24 12:16N 52°22' E 004°55'0 0.0
2019-Oct-24 11:58N 52°22' E 004°55'0 0.0
2019-Oct-24 11:25N 52°22' E 004°55'0 0.0
2019-Oct-24 10:58N 52°22' E 004°55'0 0.0
2019-Oct-24 10:28N 52°22' E 004°55'0 0.0
2019-Oct-24 09:58N 52°22' E 004°55'0 0.0
2019-Oct-24 09:28N 52°22' E 004°55'0 0.0
2019-Oct-24 08:58N 52°22' E 004°55'0 0.0
2019-Oct-24 08:28N 52°22' E 004°55'0 0.0
2019-Oct-24 07:58N 52°22' E 004°55'0 0.0
2019-Oct-24 07:28N 52°22' E 004°55'0 0.0
2019-Oct-24 06:58N 52°22' E 004°55'0 0.0
2019-Oct-24 06:28N 52°22' E 004°55'0 0.0
2019-Oct-24 05:58N 52°22' E 004°55'0 0.0
2019-Oct-24 05:28N 52°22' E 004°55'0 0.0
2019-Oct-24 04:58N 52°22' E 004°55'0 0.0
2019-Oct-24 04:28N 52°22' E 004°55'0 0.0
2019-Oct-24 03:58N 52°22' E 004°55'0 0.0
2019-Oct-24 03:28N 52°22' E 004°55'0 0.0
2019-Oct-24 02:58N 52°22' E 004°55'0 0.0
2019-Oct-24 02:28N 52°22' E 004°55'0 0.0
2019-Oct-24 01:58N 52°22' E 004°55'0 0.0
2019-Oct-24 01:28N 52°22' E 004°55'0 0.0
2019-Oct-24 00:58N 52°22' E 004°55'0 0.0
2019-Oct-24 00:28N 52°22' E 004°55'0 0.0
2019-Oct-23 23:58N 52°22' E 004°55'0 0.0
2019-Oct-23 23:25N 52°22' E 004°55'0 0.0
2019-Oct-23 22:58N 52°22' E 004°55'0 0.0
2019-Oct-23 22:22N 52°22' E 004°55'0 0.0
2019-Oct-23 21:58N 52°22' E 004°55'0 0.0
2019-Oct-23 21:16N 52°22' E 004°55'0 0.0
2019-Oct-23 20:58N 52°22' E 004°55'0 0.0
2019-Oct-23 20:28N 52°22' E 004°55'0 0.0
2019-Oct-23 19:58N 52°22' E 004°55'0 0.0
2019-Oct-23 19:25N 52°22' E 004°55'0 0.0
2019-Oct-23 18:58N 52°22' E 004°55'0 0.0
2019-Oct-23 18:28N 52°22' E 004°55'0 0.0
2019-Oct-23 17:58N 52°22' E 004°55'0 0.0
2019-Oct-23 17:28N 52°22' E 004°55'0 0.0
2019-Oct-23 16:55N 52°22' E 004°55'0 0.0
2019-Oct-23 16:22N 52°22' E 004°55'0 0.0
2019-Oct-23 15:49N 52°22' E 004°55'0 0.0
2019-Oct-23 15:28N 52°22' E 004°55'0 0.0
2019-Oct-23 14:58N 52°22' E 004°55'0 0.0
2019-Oct-23 14:25N 52°22' E 004°55'0 0.0
2019-Oct-23 13:58N 52°22' E 004°55'0 0.0
2019-Oct-23 13:25N 52°22' E 004°55'0 0.0
2019-Oct-23 12:52N 52°22' E 004°55'0 0.0
2019-Oct-23 12:28N 52°22' E 004°55'0 0.0
2019-Oct-23 11:55N 52°22' E 004°55'0 0.0
2019-Oct-23 11:28N 52°22' E 004°55'0 0.0
2019-Oct-23 10:52N 52°22' E 004°55'0 0.0
2019-Oct-23 10:28N 52°22' E 004°55'0 0.0
2019-Oct-23 09:55N 52°22' E 004°55'0 0.0
2019-Oct-23 09:25N 52°22' E 004°55'0 0.0
2019-Oct-23 08:55N 52°22' E 004°55'0 0.0
2019-Oct-23 08:28N 52°22' E 004°55'0 0.0
2019-Oct-23 07:58N 52°22' E 004°55'0 0.0
2019-Oct-23 07:22N 52°22' E 004°55'0 0.0
2019-Oct-23 06:58N 52°22' E 004°55'0 0.0
2019-Oct-23 06:28N 52°22' E 004°55'0 0.0
2019-Oct-23 05:58N 52°22' E 004°55'0 0.0
2019-Oct-23 05:28N 52°22' E 004°55'0 0.0
2019-Oct-23 04:58N 52°22' E 004°55'0 0.0
2019-Oct-23 04:28N 52°22' E 004°55'0 0.0
2019-Oct-23 03:58N 52°22' E 004°55'0 0.0
2019-Oct-23 03:28N 52°22' E 004°55'0 0.0
2019-Oct-23 02:58N 52°22' E 004°55'0 0.0
2019-Oct-23 01:58N 52°22' E 004°55'0 0.0
2019-Oct-23 01:28N 52°22' E 004°55'0 0.0
2019-Oct-23 00:58N 52°22' E 004°55'0 0.0
2019-Oct-23 00:28N 52°22' E 004°55'0 0.0
2019-Oct-22 23:58N 52°22' E 004°55'0 0.0
2019-Oct-22 23:28N 52°22' E 004°55'0 0.0
2019-Oct-22 22:58N 52°22' E 004°55'0 0.0
2019-Oct-22 22:28N 52°22' E 004°55'0 0.0
2019-Oct-22 21:58N 52°22' E 004°55'0 0.0
2019-Oct-22 21:28N 52°22' E 004°55'0 0.0
2019-Oct-22 20:58N 52°22' E 004°55'0 0.0
2019-Oct-22 20:28N 52°22' E 004°55'0 0.0
2019-Oct-22 19:58N 52°22' E 004°55'0 0.0
2019-Oct-22 19:25N 52°22' E 004°55'0 0.0
2019-Oct-22 18:58N 52°22' E 004°55'0 0.0
2019-Oct-22 18:28N 52°22' E 004°55'0 0.0
2019-Oct-22 17:52N 52°22' E 004°55'0 0.0
2019-Oct-22 17:28N 52°22' E 004°55'0 0.0
2019-Oct-22 16:58N 52°22' E 004°55'0 0.0
2019-Oct-22 16:22N 52°22' E 004°55'0 0.0
2019-Oct-22 15:58N 52°22' E 004°55'0 0.0
2019-Oct-22 15:22N 52°22' E 004°55'0 0.0
2019-Oct-22 14:52N 52°22' E 004°55'0 0.0
2019-Oct-22 14:25N 52°22' E 004°55'0 0.0
2019-Oct-22 13:52N 52°22' E 004°55'0 0.0
2019-Oct-22 13:22N 52°22' E 004°55'0 0.0
2019-Oct-22 12:52N 52°22' E 004°55'0 0.0
2019-Oct-22 12:28N 52°22' E 004°55'0 0.0
2019-Oct-22 11:58N 52°22' E 004°55'0 0.0
2019-Oct-22 11:28N 52°22' E 004°55'0 0.0
2019-Oct-22 10:52N 52°22' E 004°55'0 0.0
2019-Oct-22 10:28N 52°22' E 004°55'0 0.0
2019-Oct-22 09:58N 52°22' E 004°55'0 0.0
2019-Oct-22 09:28N 52°22' E 004°55'0 0.0
2019-Oct-22 08:58N 52°22' E 004°55'0 0.0
2019-Oct-22 08:28N 52°22' E 004°55'0 0.0
2019-Oct-22 07:58N 52°22' E 004°55'0 0.0
2019-Oct-22 07:28N 52°22' E 004°55'0 0.0
2019-Oct-22 06:55N 52°22' E 004°55'0 0.0
2019-Oct-22 06:22N 52°22' E 004°55'0 0.0
2019-Oct-22 05:49N 52°22' E 004°55'0 0.0
2019-Oct-22 05:28N 52°22' E 004°55'0 0.0
2019-Oct-22 04:58N 52°22' E 004°55'0 0.0
2019-Oct-22 04:28N 52°22' E 004°55'0 0.0
2019-Oct-22 03:58N 52°22' E 004°55'0 0.0
2019-Oct-22 03:22N 52°22' E 004°55'0 0.0
2019-Oct-22 02:58N 52°22' E 004°55'0 0.0
2019-Oct-22 02:25N 52°22' E 004°55'0 0.0
2019-Oct-22 01:58N 52°22' E 004°55'0 0.0
2019-Oct-22 01:28N 52°22' E 004°55'0 0.0
2019-Oct-22 00:58N 52°22' E 004°55'0 0.0
2019-Oct-22 00:16N 52°22' E 004°55'0 0.0
2019-Oct-21 23:58N 52°22' E 004°55'0 0.0
2019-Oct-21 23:28N 52°22' E 004°55'0 0.0
2019-Oct-21 23:01N 52°22' E 004°55'0 0.0
2019-Oct-21 22:25N 52°22' E 004°55'0 0.0
2019-Oct-21 21:58N 52°22' E 004°55'0 0.0
2019-Oct-21 21:31N 52°22' E 004°55'0 0.0
2019-Oct-21 20:58N 52°22' E 004°55'0 0.0
2019-Oct-21 20:28N 52°22' E 004°55'0 0.0
2019-Oct-21 19:58N 52°22' E 004°55'0 0.0
2019-Oct-21 19:28N 52°22' E 004°55'0 0.0
2019-Oct-21 18:58N 52°22' E 004°55'0 0.0
2019-Oct-21 18:28N 52°22' E 004°55'0 0.0
2019-Oct-21 17:58N 52°22' E 004°55'0 0.0
2019-Oct-21 17:31N 52°22' E 004°55'0 0.0
2019-Oct-21 17:01N 52°22' E 004°55'0 0.0
2019-Oct-21 16:28N 52°22' E 004°55'0 0.0
2019-Oct-21 15:57N 52°22' E 004°55'0 0.0
2019-Oct-21 15:27N 52°22' E 004°55'0 0.0
2019-Oct-21 14:58N 52°22' E 004°55'0 0.0
2019-Oct-21 14:28N 52°22' E 004°55'0 0.0
2019-Oct-21 14:01N 52°22' E 004°55'0 0.0
2019-Oct-21 13:28N 52°22' E 004°55'0 0.0
2019-Oct-21 12:55N 52°22' E 004°55'0 0.0
2019-Oct-21 12:30N 52°22' E 004°55'0 0.0
2019-Oct-21 11:58N 52°22' E 004°55'0 0.0
2019-Oct-21 11:30N 52°22' E 004°55'0 0.0
2019-Oct-21 11:01N 52°22' E 004°55'0 0.0
2019-Oct-21 10:30N 52°22' E 004°55'0 0.0
2019-Oct-21 09:58N 52°22' E 004°55'0 0.0
2019-Oct-21 09:28N 52°22' E 004°55'0 0.0
2019-Oct-21 08:52N 52°22' E 004°55'0 0.0
2019-Oct-21 08:30N 52°22' E 004°55'0 0.0
2019-Oct-21 08:00N 52°22' E 004°55'0 0.0
2019-Oct-21 07:28N 52°22' E 004°55'0 0.0
2019-Oct-21 07:01N 52°22' E 004°55'0 0.0
2019-Oct-21 06:30N 52°22' E 004°55'0 0.0
2019-Oct-21 06:00N 52°22' E 004°55'0 0.0
2019-Oct-21 05:30N 52°22' E 004°55'0 0.0
2019-Oct-21 05:01N 52°22' E 004°55'0 0.0
2019-Oct-21 04:28N 52°22' E 004°55'0 0.0
2019-Oct-21 04:01N 52°22' E 004°55'0 0.0
2019-Oct-21 03:30N 52°22' E 004°55'0 0.0
2019-Oct-21 02:48N 52°22' E 004°55'0 0.0
2019-Oct-21 02:30N 52°22' E 004°55'0 0.0
2019-Oct-21 02:00N 52°22' E 004°55'0 0.0
2019-Oct-21 01:28N 52°22' E 004°55'0 0.0
2019-Oct-21 01:00N 52°22' E 004°55'0 0.0
2019-Oct-21 00:31N 52°22' E 004°55'0 0.0
2019-Oct-20 23:54N 52°22' E 004°55'0 0.0
2019-Oct-20 23:30N 52°22' E 004°55'0 0.0
2019-Oct-20 23:00N 52°22' E 004°55'0 0.0
2019-Oct-20 22:30N 52°22' E 004°55'0 0.0
2019-Oct-20 22:00N 52°22' E 004°55'0 0.0
2019-Oct-20 21:30N 52°22' E 004°55'0 0.0
2019-Oct-20 21:00N 52°22' E 004°55'0 0.0
2019-Oct-20 20:30N 52°22' E 004°55'0 0.0
2019-Oct-20 20:00N 52°22' E 004°55'0 0.0
2019-Oct-20 19:30N 52°22' E 004°55'0 0.0
2019-Oct-20 19:00N 52°22' E 004°55'0 0.0
2019-Oct-20 18:30N 52°22' E 004°55'0 0.0
2019-Oct-20 18:00N 52°22' E 004°55'0 0.0
2019-Oct-20 17:30N 52°22' E 004°55'0 0.0
2019-Oct-20 16:57N 52°22' E 004°55'0 0.0
2019-Oct-20 16:27N 52°22' E 004°55'0 0.0
2019-Oct-20 16:00N 52°22' E 004°55'0 0.0
2019-Oct-20 15:28N 52°22' E 004°55'0 0.0
2019-Oct-20 15:00N 52°22' E 004°55'0 0.0
2019-Oct-20 14:30N 52°22' E 004°55'0 0.0
2019-Oct-20 14:00N 52°22' E 004°55'0 0.0
2019-Oct-20 13:27N 52°22' E 004°55'0 0.0
2019-Oct-20 13:00N 52°22' E 004°55'0 0.0
2019-Oct-20 12:30N 52°22' E 004°55'0 0.0
2019-Oct-20 11:54N 52°22' E 004°55'0 0.0
2019-Oct-20 11:30N 52°22' E 004°55'0 0.0
2019-Oct-20 11:01N 52°22' E 004°55'0 0.0
2019-Oct-20 10:27N 52°22' E 004°55'0 0.0
2019-Oct-20 10:00N 52°22' E 004°55'0 0.0
2019-Oct-20 09:24N 52°22' E 004°55'0 0.0
2019-Oct-20 09:00N 52°22' E 004°55'0 0.0
2019-Oct-20 08:31N 52°22' E 004°55'0 0.0
2019-Oct-20 08:00N 52°22' E 004°55'0 0.0
2019-Oct-20 07:30N 52°22' E 004°55'0 0.0
2019-Oct-20 06:57N 52°22' E 004°55'0 0.0
2019-Oct-20 06:27N 52°22' E 004°55'0 0.0
2019-Oct-20 05:57N 52°22' E 004°55'0 0.0
2019-Oct-20 05:30N 52°22' E 004°55'0 0.0
2019-Oct-20 04:57N 52°22' E 004°55'0 0.0
2019-Oct-20 04:30N 52°22' E 004°55'0 0.0
2019-Oct-20 04:00N 52°22' E 004°55'0 0.0
2019-Oct-20 03:27N 52°22' E 004°55'0 0.0
2019-Oct-20 03:00N 52°22' E 004°55'0 0.0
2019-Oct-20 02:30N 52°22' E 004°55'0 0.0
2019-Oct-20 01:57N 52°22' E 004°55'0 0.0
2019-Oct-20 01:27N 52°22' E 004°55'0 0.0
2019-Oct-20 01:00N 52°22' E 004°55'0 0.0
2019-Oct-20 00:30N 52°22' E 004°55'0 0.0
2019-Oct-20 00:00N 52°22' E 004°55'0 0.0
2019-Oct-19 23:24N 52°22' E 004°55'0 0.0
2019-Oct-19 22:57N 52°22' E 004°55'0 0.0
2019-Oct-19 22:30N 52°22' E 004°55'0 0.0
2019-Oct-19 22:00N 52°22' E 004°55'0 0.0
2019-Oct-19 21:30N 52°22' E 004°55'0 0.0
2019-Oct-19 20:57N 52°22' E 004°55'0 0.0
2019-Oct-19 20:30N 52°22' E 004°55'0 0.0
2019-Oct-19 19:57N 52°22' E 004°55'0 0.0
2019-Oct-19 19:30N 52°22' E 004°55'0 0.0
2019-Oct-19 18:57N 52°22' E 004°55'0 0.0
2019-Oct-19 18:30N 52°22' E 004°55'0 0.0
2019-Oct-19 17:51N 52°22' E 004°55'0 0.0
2019-Oct-19 17:30N 52°22' E 004°55'0 0.0
2019-Oct-19 16:51N 52°22' E 004°55'0 0.0
2019-Oct-19 16:30N 52°22' E 004°55'0 0.0
2019-Oct-19 15:57N 52°22' E 004°55'0 0.0
2019-Oct-19 15:30N 52°22' E 004°55'0 0.0
2019-Oct-19 14:57N 52°22' E 004°55'0 0.0
2019-Oct-19 14:27N 52°22' E 004°55'0 0.0
2019-Oct-19 13:57N 52°22' E 004°55'0 0.0
2019-Oct-19 13:30N 52°22' E 004°55'0 0.0
2019-Oct-19 13:00N 52°22' E 004°55'0 0.0
2019-Oct-19 12:30N 52°22' E 004°55'0 0.0
2019-Oct-19 11:57N 52°22' E 004°55'0 0.0
2019-Oct-19 11:27N 52°22' E 004°55'0 0.0
2019-Oct-19 11:00N 52°22' E 004°55'0 0.0
2019-Oct-19 10:27N 52°22' E 004°55'0 0.0
2019-Oct-19 09:57N 52°22' E 004°55'0 0.0
2019-Oct-19 09:27N 52°22' E 004°55'0 0.0
2019-Oct-19 08:51N 52°22' E 004°55'0 0.0
2019-Oct-19 08:30N 52°22' E 004°55'0 0.0
2019-Oct-19 07:57N 52°22' E 004°55'0 0.0
2019-Oct-19 07:30N 52°22' E 004°55'0 0.0
2019-Oct-19 07:00N 52°22' E 004°55'0 0.0
2019-Oct-19 06:30N 52°22' E 004°55'0 0.0
2019-Oct-19 05:57N 52°22' E 004°55'0 0.0
2019-Oct-19 05:30N 52°22' E 004°55'0 0.0
2019-Oct-19 04:57N 52°22' E 004°55'0 0.0
2019-Oct-19 04:30N 52°22' E 004°55'0 0.0
2019-Oct-19 03:54N 52°22' E 004°55'0 0.0
2019-Oct-19 03:27N 52°22' E 004°55'0 0.0
2019-Oct-19 02:57N 52°22' E 004°55'0 0.0
2019-Oct-19 02:30N 52°22' E 004°55'0 0.0
2019-Oct-19 01:57N 52°22' E 004°55'0 0.0
2019-Oct-19 01:30N 52°22' E 004°55'0 0.0
2019-Oct-19 01:00N 52°22' E 004°55'0 0.3
2019-Oct-19 00:30N 52°22' E 004°55'0 0.4
2019-Oct-19 00:00N 52°23' E 004°55'0 0.3
2019-Oct-18 23:31N 52°23' E 004°55'0 0.7
2019-Oct-18 22:59N 52°23' E 004°55'0 0.0
2019-Oct-18 22:29N 52°23' E 004°55'0 0.0
2019-Oct-18 21:59N 52°23' E 004°55'0 0.0
2019-Oct-18 21:29N 52°23' E 004°55'0 0.0
2019-Oct-18 20:59N 52°23' E 004°55'0 0.0
2019-Oct-18 20:29N 52°23' E 004°55'0 0.0
2019-Oct-18 19:59N 52°23' E 004°55'0 0.0
2019-Oct-18 19:29N 52°23' E 004°55'0 0.0
2019-Oct-18 18:59N 52°23' E 004°55'0 0.0
2019-Oct-18 18:29N 52°23' E 004°55'0 0.0
2019-Oct-18 17:59N 52°23' E 004°55'0 0.0
2019-Oct-18 17:29N 52°23' E 004°55'0 0.0
2019-Oct-18 16:59N 52°23' E 004°55'0 0.0
2019-Oct-18 16:29N 52°23' E 004°55'0 0.0
2019-Oct-18 15:59N 52°23' E 004°55'0 0.0
2019-Oct-18 15:29N 52°23' E 004°55'0 0.0
2019-Oct-18 14:59N 52°23' E 004°55'0 0.0
2019-Oct-18 14:29N 52°23' E 004°55'0 0.0
2019-Oct-18 13:59N 52°23' E 004°55'0 0.0
2019-Oct-18 13:29N 52°23' E 004°55'0 0.0
2019-Oct-18 12:59N 52°23' E 004°55'0 0.0
2019-Oct-18 12:29N 52°23' E 004°55'1 1.5
2019-Oct-18 12:00N 52°23' E 004°54'3 5.8
2019-Oct-18 11:30N 52°25' E 004°51'3 5.7
2019-Oct-18 11:00N 52°26' E 004°46'3 5.6
2019-Oct-18 10:31N 52°25' E 004°51'  
Track history (hours):
 
Tides and Currents Weather Stations Pressure Air Temp Water Temp Dewpoint Dewpoint Depression Visibility Wind Speed Wind Dir Waves Ship Positions

Stad Amsterdam (Netherlands)

Ship's website: http://www.stadamsterdam.com/content/home/index.xml

Last reported at 2019-Oct-28 10:06 UTC. Time now 2019-Nov-17 17:34 UTC.
Position N 52°58' E 004°46'.
Warning: this ship's position is 20 days out of date.

Length 76 m; beam 10 m.

Type: Sailing vessel. MMSI: 246494000.

Date/timePositionNaut miles runAvg speedWind from/ knotsBaromVisibWave heightAir tempDewpointWater temp
2019-Oct-28 10:06N 52°58' E 004°46'0 0.5
2019-Oct-28 09:47N 52°58' E 004°47'2 1.8
2019-Oct-28 08:44N 52°58' E 004°44'1 3.3
2019-Oct-28 08:25N 52°57' E 004°42'2 4.1
2019-Oct-28 07:57N 52°56' E 004°40'3 4.7
2019-Oct-28 07:24N 52°53' E 004°39'4 5.1
2019-Oct-28 06:41N 52°50' E 004°36'1 5.7
2019-Oct-28 06:29N 52°49' E 004°36'3 5.8
2019-Oct-28 06:00N 52°46' E 004°35'3 6.7
2019-Oct-28 05:30N 52°43' E 004°34'4 7.7
2019-Oct-28 05:00N 52°39' E 004°34'4 8.0
2019-Oct-28 04:30N 52°35' E 004°33'4 8.0
2019-Oct-28 04:00N 52°31' E 004°32'3 6.6
2019-Oct-28 03:31N 52°28' E 004°33'2 3.2
2019-Oct-28 03:00N 52°28' E 004°36'5 5.3
2019-Oct-28 02:00N 52°26' E 004°44'4 7.5
2019-Oct-28 01:30N 52°25' E 004°50'3 6.0
2019-Oct-28 01:01N 52°24' E 004°54'1 2.3
2019-Oct-28 00:30N 52°23' E 004°55'0 0.2
2019-Oct-28 00:00N 52°22' E 004°55'0 0.4
2019-Oct-27 23:30N 52°22' E 004°55'0 0.0
2019-Oct-27 22:57N 52°22' E 004°55'0 0.0
2019-Oct-27 22:30N 52°22' E 004°55'0 0.0
2019-Oct-27 22:00N 52°22' E 004°55'0 0.0
2019-Oct-27 21:30N 52°22' E 004°55'0 0.0
2019-Oct-27 21:00N 52°22' E 004°55'0 0.0
2019-Oct-27 20:27N 52°22' E 004°55'0 0.0
2019-Oct-27 19:51N 52°22' E 004°55'0 0.0
2019-Oct-27 19:30N 52°22' E 004°55'0 0.0
2019-Oct-27 19:00N 52°22' E 004°55'0 0.0
2019-Oct-27 18:27N 52°22' E 004°55'0 0.0
2019-Oct-27 17:57N 52°22' E 004°55'0 0.0
2019-Oct-27 17:30N 52°22' E 004°55'0 0.0
2019-Oct-27 17:00N 52°22' E 004°55'0 0.0
2019-Oct-27 16:27N 52°22' E 004°55'0 0.0
2019-Oct-27 16:00N 52°22' E 004°55'0 0.0
2019-Oct-27 15:27N 52°22' E 004°55'0 0.0
2019-Oct-27 14:54N 52°22' E 004°55'0 0.0
2019-Oct-27 14:30N 52°22' E 004°55'0 0.0
2019-Oct-27 14:00N 52°22' E 004°55'0 0.0
2019-Oct-27 13:30N 52°22' E 004°55'0 0.0
2019-Oct-27 13:00N 52°22' E 004°55'0 0.0
2019-Oct-27 12:27N 52°22' E 004°55'0 0.0
2019-Oct-27 12:00N 52°22' E 004°55'0 0.0
2019-Oct-27 11:30N 52°22' E 004°55'0 0.0
2019-Oct-27 11:00N 52°22' E 004°55'0 0.0
2019-Oct-27 10:30N 52°22' E 004°55'0 0.0
2019-Oct-27 10:00N 52°22' E 004°55'0 0.0
2019-Oct-27 09:30N 52°22' E 004°55'0 0.0
2019-Oct-27 09:00N 52°22' E 004°55'0 0.0
2019-Oct-27 08:27N 52°22' E 004°55'0 0.0
2019-Oct-27 07:57N 52°22' E 004°55'0 0.0
2019-Oct-27 07:30N 52°22' E 004°55'0 0.0
2019-Oct-27 07:00N 52°22' E 004°55'0 0.0
2019-Oct-27 06:27N 52°22' E 004°55'0 0.0
2019-Oct-27 06:00N 52°22' E 004°55'0 0.0
2019-Oct-27 05:30N 52°22' E 004°55'0 0.0
2019-Oct-27 05:00N 52°22' E 004°55'0 0.0
2019-Oct-27 04:30N 52°22' E 004°55'0 0.0
2019-Oct-27 04:00N 52°22' E 004°55'0 0.0
2019-Oct-27 02:30N 52°22' E 004°55'0 0.0
2019-Oct-27 02:00N 52°22' E 004°55'0 0.0
2019-Oct-27 01:27N 52°22' E 004°55'0 0.0
2019-Oct-27 00:54N 52°22' E 004°55'0 0.0
2019-Oct-27 00:30N 52°22' E 004°55'0 0.4
2019-Oct-27 00:00N 52°23' E 004°55'0 0.0
2019-Oct-26 23:30N 52°23' E 004°55'0 0.3
2019-Oct-26 23:00N 52°22' E 004°55'0 0.2
2019-Oct-26 22:28N 52°22' E 004°55'0 0.0
2019-Oct-26 21:55N 52°22' E 004°55'0 0.0
2019-Oct-26 21:28N 52°22' E 004°55'0 0.0
2019-Oct-26 20:58N 52°22' E 004°55'0 0.0
2019-Oct-26 20:28N 52°22' E 004°55'0 0.0
2019-Oct-26 19:52N 52°22' E 004°55'0 0.0
2019-Oct-26 19:25N 52°22' E 004°55'0 0.0
2019-Oct-26 18:58N 52°22' E 004°55'0 0.0
2019-Oct-26 18:28N 52°22' E 004°55'0 0.0
2019-Oct-26 17:58N 52°22' E 004°55'0 0.0
2019-Oct-26 17:28N 52°22' E 004°55'0 0.0
2019-Oct-26 16:58N 52°22' E 004°55'0 0.0
2019-Oct-26 16:28N 52°22' E 004°55'0 0.0
2019-Oct-26 15:49N 52°22' E 004°55'0 0.0
2019-Oct-26 15:28N 52°22' E 004°55'0 0.0
2019-Oct-26 14:58N 52°22' E 004°55'0 0.0
2019-Oct-26 14:28N 52°22' E 004°55'0 0.0
2019-Oct-26 13:58N 52°22' E 004°55'0 0.0
2019-Oct-26 13:28N 52°22' E 004°55'0 0.0
2019-Oct-26 12:55N 52°22' E 004°55'0 0.0
2019-Oct-26 12:28N 52°22' E 004°55'0 0.0
2019-Oct-26 11:58N 52°22' E 004°55'0 0.0
2019-Oct-26 11:28N 52°22' E 004°55'0 0.0
2019-Oct-26 10:58N 52°22' E 004°55'0 0.0
2019-Oct-26 10:28N 52°22' E 004°55'0 0.0
2019-Oct-26 09:58N 52°22' E 004°55'0 0.0
2019-Oct-26 09:28N 52°22' E 004°55'0 0.0
2019-Oct-26 08:58N 52°22' E 004°55'0 0.0
2019-Oct-26 08:28N 52°22' E 004°55'0 0.0
2019-Oct-26 07:58N 52°22' E 004°55'0 0.0
2019-Oct-26 07:25N 52°22' E 004°55'0 0.0
2019-Oct-26 06:55N 52°22' E 004°55'0 0.0
2019-Oct-26 06:28N 52°22' E 004°55'0 0.0
2019-Oct-26 05:58N 52°22' E 004°55'0 0.0
2019-Oct-26 05:28N 52°22' E 004°55'0 0.0
2019-Oct-26 04:58N 52°22' E 004°55'0 0.0
2019-Oct-26 04:28N 52°22' E 004°55'0 0.0
2019-Oct-26 03:52N 52°22' E 004°55'0 0.0
2019-Oct-26 03:28N 52°22' E 004°55'0 0.0
2019-Oct-26 02:58N 52°22' E 004°55'0 0.0
2019-Oct-26 02:28N 52°22' E 004°55'0 0.0
2019-Oct-26 01:55N 52°22' E 004°55'0 0.0
2019-Oct-26 01:28N 52°22' E 004°55'0 0.0
2019-Oct-26 00:58N 52°22' E 004°55'0 0.0
2019-Oct-26 00:28N 52°22' E 004°55'0 0.0
2019-Oct-25 23:58N 52°22' E 004°55'0 0.0
2019-Oct-25 23:28N 52°22' E 004°55'0 0.0
2019-Oct-25 22:58N 52°22' E 004°55'0 0.0
2019-Oct-25 22:28N 52°22' E 004°55'0 0.0
2019-Oct-25 21:58N 52°22' E 004°55'0 0.0
2019-Oct-25 21:25N 52°22' E 004°55'0 0.0
2019-Oct-25 20:58N 52°22' E 004°55'0 0.0
2019-Oct-25 20:28N 52°22' E 004°55'0 0.0
2019-Oct-25 19:58N 52°22' E 004°55'0 0.0
2019-Oct-25 19:22N 52°22' E 004°55'0 0.0
2019-Oct-25 18:58N 52°22' E 004°55'0 0.0
2019-Oct-25 18:28N 52°22' E 004°55'0 0.0
2019-Oct-25 17:58N 52°22' E 004°55'0 0.0
2019-Oct-25 17:28N 52°22' E 004°55'0 0.0
2019-Oct-25 16:52N 52°22' E 004°55'0 0.0
2019-Oct-25 16:28N 52°22' E 004°55'0 0.0
2019-Oct-25 15:58N 52°22' E 004°55'0 0.0
2019-Oct-25 15:25N 52°22' E 004°55'0 0.0
2019-Oct-25 14:58N 52°22' E 004°55'0 0.0
2019-Oct-25 14:28N 52°22' E 004°55'0 0.0
2019-Oct-25 13:58N 52°22' E 004°55'0 0.0
2019-Oct-25 13:28N 52°22' E 004°55'0 0.0
2019-Oct-25 12:58N 52°22' E 004°55'0 0.0
2019-Oct-25 12:28N 52°22' E 004°55'0 0.0
2019-Oct-25 11:58N 52°22' E 004°55'0 0.0
2019-Oct-25 11:25N 52°22' E 004°55'0 0.0
2019-Oct-25 10:49N 52°22' E 004°55'0 0.0
2019-Oct-25 10:28N 52°22' E 004°55'0 0.0
2019-Oct-25 09:58N 52°22' E 004°55'0 0.0
2019-Oct-25 09:28N 52°22' E 004°55'0 0.0
2019-Oct-25 08:58N 52°22' E 004°55'0 0.0
2019-Oct-25 08:28N 52°22' E 004°55'0 0.0
2019-Oct-25 07:58N 52°22' E 004°55'0 0.0
2019-Oct-25 07:13N 52°22' E 004°55'0 0.0
2019-Oct-25 06:43N 52°22' E 004°55'0 0.0
2019-Oct-25 06:28N 52°22' E 004°55'0 0.0
2019-Oct-25 05:55N 52°22' E 004°55'0 0.0
2019-Oct-25 05:16N 52°22' E 004°55'0 0.0
2019-Oct-25 04:58N 52°22' E 004°55'0 0.0
2019-Oct-25 04:25N 52°22' E 004°55'0 0.0
2019-Oct-25 03:55N 52°22' E 004°55'0 0.0
2019-Oct-25 03:25N 52°22' E 004°55'0 0.0
2019-Oct-25 02:58N 52°22' E 004°55'0 0.0
2019-Oct-25 02:28N 52°22' E 004°55'0 0.0
2019-Oct-25 01:58N 52°22' E 004°55'0 0.0
2019-Oct-25 01:28N 52°22' E 004°55'0 0.0
2019-Oct-25 00:55N 52°22' E 004°55'0 0.0
2019-Oct-25 00:28N 52°22' E 004°55'0 0.0
2019-Oct-24 23:58N 52°22' E 004°55'0 0.0
2019-Oct-24 23:28N 52°22' E 004°55'0 0.0
2019-Oct-24 22:55N 52°22' E 004°55'0 0.0
2019-Oct-24 22:28N 52°22' E 004°55'0 0.0
2019-Oct-24 21:55N 52°22' E 004°55'0 0.0
2019-Oct-24 21:28N 52°22' E 004°55'0 0.0
2019-Oct-24 20:55N 52°22' E 004°55'0 0.0
2019-Oct-24 20:25N 52°22' E 004°55'0 0.0
2019-Oct-24 19:58N 52°22' E 004°55'0 0.0
2019-Oct-24 19:28N 52°22' E 004°55'0 0.0
2019-Oct-24 18:58N 52°22' E 004°55'0 0.0
2019-Oct-24 18:25N 52°22' E 004°55'0 0.0
2019-Oct-24 17:58N 52°22' E 004°55'0 0.0
2019-Oct-24 17:25N 52°22' E 004°55'0 0.0
2019-Oct-24 16:55N 52°22' E 004°55'0 0.0
2019-Oct-24 16:28N 52°22' E 004°55'0 0.0
2019-Oct-24 15:58N 52°22' E 004°55'0 0.0
2019-Oct-24 15:28N 52°22' E 004°55'0 0.0
2019-Oct-24 14:58N 52°22' E 004°55'0 0.0
2019-Oct-24 14:25N 52°22' E 004°55'0 0.0
2019-Oct-24 13:55N 52°22' E 004°55'0 0.0
2019-Oct-24 13:28N 52°22' E 004°55'0 0.0
2019-Oct-24 12:58N 52°22' E 004°55'0 0.0
2019-Oct-24 12:16N 52°22' E 004°55'0 0.0
2019-Oct-24 11:58N 52°22' E 004°55'0 0.0
2019-Oct-24 11:25N 52°22' E 004°55'0 0.0
2019-Oct-24 10:58N 52°22' E 004°55'0 0.0
2019-Oct-24 10:28N 52°22' E 004°55'0 0.0
2019-Oct-24 09:58N 52°22' E 004°55'0 0.0
2019-Oct-24 09:28N 52°22' E 004°55'0 0.0
2019-Oct-24 08:58N 52°22' E 004°55'0 0.0
2019-Oct-24 08:28N 52°22' E 004°55'0 0.0
2019-Oct-24 07:58N 52°22' E 004°55'0 0.0
2019-Oct-24 07:28N 52°22' E 004°55'0 0.0
2019-Oct-24 06:58N 52°22' E 004°55'0 0.0
2019-Oct-24 06:28N 52°22' E 004°55'0 0.0
2019-Oct-24 05:58N 52°22' E 004°55'0 0.0
2019-Oct-24 05:28N 52°22' E 004°55'0 0.0
2019-Oct-24 04:58N 52°22' E 004°55'0 0.0
2019-Oct-24 04:28N 52°22' E 004°55'0 0.0
2019-Oct-24 03:58N 52°22' E 004°55'0 0.0
2019-Oct-24 03:28N 52°22' E 004°55'0 0.0
2019-Oct-24 02:58N 52°22' E 004°55'0 0.0
2019-Oct-24 02:28N 52°22' E 004°55'0 0.0
2019-Oct-24 01:58N 52°22' E 004°55'0 0.0
2019-Oct-24 01:28N 52°22' E 004°55'0 0.0
2019-Oct-24 00:58N 52°22' E 004°55'0 0.0
2019-Oct-24 00:28N 52°22' E 004°55'0 0.0
2019-Oct-23 23:58N 52°22' E 004°55'0 0.0
2019-Oct-23 23:25N 52°22' E 004°55'0 0.0
2019-Oct-23 22:58N 52°22' E 004°55'0 0.0
2019-Oct-23 22:22N 52°22' E 004°55'0 0.0
2019-Oct-23 21:58N 52°22' E 004°55'0 0.0
2019-Oct-23 21:16N 52°22' E 004°55'0 0.0
2019-Oct-23 20:58N 52°22' E 004°55'0 0.0
2019-Oct-23 20:28N 52°22' E 004°55'0 0.0
2019-Oct-23 19:58N 52°22' E 004°55'0 0.0
2019-Oct-23 19:25N 52°22' E 004°55'0 0.0
2019-Oct-23 18:58N 52°22' E 004°55'0 0.0
2019-Oct-23 18:28N 52°22' E 004°55'0 0.0
2019-Oct-23 17:58N 52°22' E 004°55'0 0.0
2019-Oct-23 17:28N 52°22' E 004°55'0 0.0
2019-Oct-23 16:55N 52°22' E 004°55'0 0.0
2019-Oct-23 16:22N 52°22' E 004°55'0 0.0
2019-Oct-23 15:49N 52°22' E 004°55'0 0.0
2019-Oct-23 15:28N 52°22' E 004°55'0 0.0
2019-Oct-23 14:58N 52°22' E 004°55'0 0.0
2019-Oct-23 14:25N 52°22' E 004°55'0 0.0
2019-Oct-23 13:58N 52°22' E 004°55'0 0.0
2019-Oct-23 13:25N 52°22' E 004°55'0 0.0
2019-Oct-23 12:52N 52°22' E 004°55'0 0.0
2019-Oct-23 12:28N 52°22' E 004°55'0 0.0
2019-Oct-23 11:55N 52°22' E 004°55'0 0.0
2019-Oct-23 11:28N 52°22' E 004°55'0 0.0
2019-Oct-23 10:52N 52°22' E 004°55'0 0.0
2019-Oct-23 10:28N 52°22' E 004°55'0 0.0
2019-Oct-23 09:55N 52°22' E 004°55'0 0.0
2019-Oct-23 09:25N 52°22' E 004°55'0 0.0
2019-Oct-23 08:55N 52°22' E 004°55'0 0.0
2019-Oct-23 08:28N 52°22' E 004°55'0 0.0
2019-Oct-23 07:58N 52°22' E 004°55'0 0.0
2019-Oct-23 07:22N 52°22' E 004°55'0 0.0
2019-Oct-23 06:58N 52°22' E 004°55'0 0.0
2019-Oct-23 06:28N 52°22' E 004°55'0 0.0
2019-Oct-23 05:58N 52°22' E 004°55'0 0.0
2019-Oct-23 05:28N 52°22' E 004°55'0 0.0
2019-Oct-23 04:58N 52°22' E 004°55'0 0.0
2019-Oct-23 04:28N 52°22' E 004°55'0 0.0
2019-Oct-23 03:58N 52°22' E 004°55'0 0.0
2019-Oct-23 03:28N 52°22' E 004°55'0 0.0
2019-Oct-23 02:58N 52°22' E 004°55'0 0.0
2019-Oct-23 01:58N 52°22' E 004°55'0 0.0
2019-Oct-23 01:28N 52°22' E 004°55'0 0.0
2019-Oct-23 00:58N 52°22' E 004°55'0 0.0
2019-Oct-23 00:28N 52°22' E 004°55'0 0.0
2019-Oct-22 23:58N 52°22' E 004°55'0 0.0
2019-Oct-22 23:28N 52°22' E 004°55'0 0.0
2019-Oct-22 22:58N 52°22' E 004°55'0 0.0
2019-Oct-22 22:28N 52°22' E 004°55'0 0.0
2019-Oct-22 21:58N 52°22' E 004°55'0 0.0
2019-Oct-22 21:28N 52°22' E 004°55'0 0.0
2019-Oct-22 20:58N 52°22' E 004°55'0 0.0
2019-Oct-22 20:28N 52°22' E 004°55'0 0.0
2019-Oct-22 19:58N 52°22' E 004°55'0 0.0
2019-Oct-22 19:25N 52°22' E 004°55'0 0.0
2019-Oct-22 18:58N 52°22' E 004°55'0 0.0
2019-Oct-22 18:28N 52°22' E 004°55'0 0.0
2019-Oct-22 17:52N 52°22' E 004°55'0 0.0
2019-Oct-22 17:28N 52°22' E 004°55'0 0.0
2019-Oct-22 16:58N 52°22' E 004°55'0 0.0
2019-Oct-22 16:22N 52°22' E 004°55'0 0.0
2019-Oct-22 15:58N 52°22' E 004°55'0 0.0
2019-Oct-22 15:22N 52°22' E 004°55'0 0.0
2019-Oct-22 14:52N 52°22' E 004°55'0 0.0
2019-Oct-22 14:25N 52°22' E 004°55'0 0.0
2019-Oct-22 13:52N 52°22' E 004°55'0 0.0
2019-Oct-22 13:22N 52°22' E 004°55'0 0.0
2019-Oct-22 12:52N 52°22' E 004°55'0 0.0
2019-Oct-22 12:28N 52°22' E 004°55'0 0.0
2019-Oct-22 11:58N 52°22' E 004°55'0 0.0
2019-Oct-22 11:28N 52°22' E 004°55'0 0.0
2019-Oct-22 10:52N 52°22' E 004°55'0 0.0
2019-Oct-22 10:28N 52°22' E 004°55'0 0.0
2019-Oct-22 09:58N 52°22' E 004°55'0 0.0
2019-Oct-22 09:28N 52°22' E 004°55'0 0.0
2019-Oct-22 08:58N 52°22' E 004°55'0 0.0
2019-Oct-22 08:28N 52°22' E 004°55'0 0.0
2019-Oct-22 07:58N 52°22' E 004°55'0 0.0
2019-Oct-22 07:28N 52°22' E 004°55'0 0.0
2019-Oct-22 06:55N 52°22' E 004°55'0 0.0
2019-Oct-22 06:22N 52°22' E 004°55'0 0.0
2019-Oct-22 05:49N 52°22' E 004°55'0 0.0
2019-Oct-22 05:28N 52°22' E 004°55'0 0.0
2019-Oct-22 04:58N 52°22' E 004°55'0 0.0
2019-Oct-22 04:28N 52°22' E 004°55'0 0.0
2019-Oct-22 03:58N 52°22' E 004°55'0 0.0
2019-Oct-22 03:22N 52°22' E 004°55'0 0.0
2019-Oct-22 02:58N 52°22' E 004°55'0 0.0
2019-Oct-22 02:25N 52°22' E 004°55'0 0.0
2019-Oct-22 01:58N 52°22' E 004°55'0 0.0
2019-Oct-22 01:28N 52°22' E 004°55'0 0.0
2019-Oct-22 00:58N 52°22' E 004°55'0 0.0
2019-Oct-22 00:16N 52°22' E 004°55'0 0.0
2019-Oct-21 23:58N 52°22' E 004°55'0 0.0
2019-Oct-21 23:28N 52°22' E 004°55'0 0.0
2019-Oct-21 23:01N 52°22' E 004°55'0 0.0
2019-Oct-21 22:25N 52°22' E 004°55'0 0.0
2019-Oct-21 21:58N 52°22' E 004°55'0 0.0
2019-Oct-21 21:31N 52°22' E 004°55'0 0.0
2019-Oct-21 20:58N 52°22' E 004°55'0 0.0
2019-Oct-21 20:28N 52°22' E 004°55'0 0.0
2019-Oct-21 19:58N 52°22' E 004°55'0 0.0
2019-Oct-21 19:28N 52°22' E 004°55'0 0.0
2019-Oct-21 18:58N 52°22' E 004°55'0 0.0
2019-Oct-21 18:28N 52°22' E 004°55'0 0.0
2019-Oct-21 17:58N 52°22' E 004°55'0 0.0
2019-Oct-21 17:31N 52°22' E 004°55'0 0.0
2019-Oct-21 17:01N 52°22' E 004°55'0 0.0
2019-Oct-21 16:28N 52°22' E 004°55'0 0.0
2019-Oct-21 15:57N 52°22' E 004°55'0 0.0
2019-Oct-21 15:27N 52°22' E 004°55'0 0.0
2019-Oct-21 14:58N 52°22' E 004°55'0 0.0
2019-Oct-21 14:28N 52°22' E 004°55'0 0.0
2019-Oct-21 14:01N 52°22' E 004°55'0 0.0
2019-Oct-21 13:28N 52°22' E 004°55'0 0.0
2019-Oct-21 12:55N 52°22' E 004°55'0 0.0
2019-Oct-21 12:30N 52°22' E 004°55'0 0.0
2019-Oct-21 11:58N 52°22' E 004°55'0 0.0
2019-Oct-21 11:30N 52°22' E 004°55'0 0.0
2019-Oct-21 11:01N 52°22' E 004°55'0 0.0
2019-Oct-21 10:30N 52°22' E 004°55'0 0.0
2019-Oct-21 09:58N 52°22' E 004°55'0 0.0
2019-Oct-21 09:28N 52°22' E 004°55'0 0.0
2019-Oct-21 08:52N 52°22' E 004°55'0 0.0
2019-Oct-21 08:30N 52°22' E 004°55'0 0.0
2019-Oct-21 08:00N 52°22' E 004°55'0 0.0
2019-Oct-21 07:28N 52°22' E 004°55'0 0.0
2019-Oct-21 07:01N 52°22' E 004°55'0 0.0
2019-Oct-21 06:30N 52°22' E 004°55'0 0.0
2019-Oct-21 06:00N 52°22' E 004°55'0 0.0
2019-Oct-21 05:30N 52°22' E 004°55'0 0.0
2019-Oct-21 05:01N 52°22' E 004°55'0 0.0
2019-Oct-21 04:28N 52°22' E 004°55'0 0.0
2019-Oct-21 04:01N 52°22' E 004°55'0 0.0
2019-Oct-21 03:30N 52°22' E 004°55'0 0.0
2019-Oct-21 02:48N 52°22' E 004°55'0 0.0
2019-Oct-21 02:30N 52°22' E 004°55'0 0.0
2019-Oct-21 02:00N 52°22' E 004°55'0 0.0
2019-Oct-21 01:28N 52°22' E 004°55'0 0.0
2019-Oct-21 01:00N 52°22' E 004°55'0 0.0
2019-Oct-21 00:31N 52°22' E 004°55'0 0.0
2019-Oct-20 23:54N 52°22' E 004°55'0 0.0
2019-Oct-20 23:30N 52°22' E 004°55'0 0.0
2019-Oct-20 23:00N 52°22' E 004°55'0 0.0
2019-Oct-20 22:30N 52°22' E 004°55'0 0.0
2019-Oct-20 22:00N 52°22' E 004°55'0 0.0
2019-Oct-20 21:30N 52°22' E 004°55'0 0.0
2019-Oct-20 21:00N 52°22' E 004°55'0 0.0
2019-Oct-20 20:30N 52°22' E 004°55'0 0.0
2019-Oct-20 20:00N 52°22' E 004°55'0 0.0
2019-Oct-20 19:30N 52°22' E 004°55'0 0.0
2019-Oct-20 19:00N 52°22' E 004°55'0 0.0
2019-Oct-20 18:30N 52°22' E 004°55'0 0.0
2019-Oct-20 18:00N 52°22' E 004°55'0 0.0
2019-Oct-20 17:30N 52°22' E 004°55'0 0.0
2019-Oct-20 16:57N 52°22' E 004°55'0 0.0
2019-Oct-20 16:27N 52°22' E 004°55'0 0.0
2019-Oct-20 16:00N 52°22' E 004°55'0 0.0
2019-Oct-20 15:28N 52°22' E 004°55'0 0.0
2019-Oct-20 15:00N 52°22' E 004°55'0 0.0
2019-Oct-20 14:30N 52°22' E 004°55'0 0.0
2019-Oct-20 14:00N 52°22' E 004°55'0 0.0
2019-Oct-20 13:27N 52°22' E 004°55'0 0.0
2019-Oct-20 13:00N 52°22' E 004°55'0 0.0
2019-Oct-20 12:30N 52°22' E 004°55'0 0.0
2019-Oct-20 11:54N 52°22' E 004°55'0 0.0
2019-Oct-20 11:30N 52°22' E 004°55'0 0.0
2019-Oct-20 11:01N 52°22' E 004°55'0 0.0
2019-Oct-20 10:27N 52°22' E 004°55'0 0.0
2019-Oct-20 10:00N 52°22' E 004°55'0 0.0
2019-Oct-20 09:24N 52°22' E 004°55'0 0.0
2019-Oct-20 09:00N 52°22' E 004°55'0 0.0
2019-Oct-20 08:31N 52°22' E 004°55'0 0.0
2019-Oct-20 08:00N 52°22' E 004°55'0 0.0
2019-Oct-20 07:30N 52°22' E 004°55'0 0.0
2019-Oct-20 06:57N 52°22' E 004°55'0 0.0
2019-Oct-20 06:27N 52°22' E 004°55'0 0.0
2019-Oct-20 05:57N 52°22' E 004°55'0 0.0
2019-Oct-20 05:30N 52°22' E 004°55'0 0.0
2019-Oct-20 04:57N 52°22' E 004°55'0 0.0
2019-Oct-20 04:30N 52°22' E 004°55'0 0.0
2019-Oct-20 04:00N 52°22' E 004°55'0 0.0
2019-Oct-20 03:27N 52°22' E 004°55'0 0.0
2019-Oct-20 03:00N 52°22' E 004°55'0 0.0
2019-Oct-20 02:30N 52°22' E 004°55'0 0.0
2019-Oct-20 01:57N 52°22' E 004°55'0 0.0
2019-Oct-20 01:27N 52°22' E 004°55'0 0.0
2019-Oct-20 01:00N 52°22' E 004°55'0 0.0
2019-Oct-20 00:30N 52°22' E 004°55'0 0.0
2019-Oct-20 00:00N 52°22' E 004°55'0 0.0
2019-Oct-19 23:24N 52°22' E 004°55'0 0.0
2019-Oct-19 22:57N 52°22' E 004°55'0 0.0
2019-Oct-19 22:30N 52°22' E 004°55'0 0.0
2019-Oct-19 22:00N 52°22' E 004°55'0 0.0
2019-Oct-19 21:30N 52°22' E 004°55'0 0.0
2019-Oct-19 20:57N 52°22' E 004°55'0 0.0
2019-Oct-19 20:30N 52°22' E 004°55'0 0.0
2019-Oct-19 19:57N 52°22' E 004°55'0 0.0
2019-Oct-19 19:30N 52°22' E 004°55'0 0.0
2019-Oct-19 18:57N 52°22' E 004°55'0 0.0
2019-Oct-19 18:30N 52°22' E 004°55'0 0.0
2019-Oct-19 17:51N 52°22' E 004°55'0 0.0
2019-Oct-19 17:30N 52°22' E 004°55'0 0.0
2019-Oct-19 16:51N 52°22' E 004°55'0 0.0
2019-Oct-19 16:30N 52°22' E 004°55'0 0.0
2019-Oct-19 15:57N 52°22' E 004°55'0 0.0
2019-Oct-19 15:30N 52°22' E 004°55'0 0.0
2019-Oct-19 14:57N 52°22' E 004°55'0 0.0
2019-Oct-19 14:27N 52°22' E 004°55'0 0.0
2019-Oct-19 13:57N 52°22' E 004°55'0 0.0
2019-Oct-19 13:30N 52°22' E 004°55'0 0.0
2019-Oct-19 13:00N 52°22' E 004°55'0 0.0
2019-Oct-19 12:30N 52°22' E 004°55'0 0.0
2019-Oct-19 11:57N 52°22' E 004°55'0 0.0
2019-Oct-19 11:27N 52°22' E 004°55'0 0.0
2019-Oct-19 11:00N 52°22' E 004°55'0 0.0
2019-Oct-19 10:27N 52°22' E 004°55'0 0.0
2019-Oct-19 09:57N 52°22' E 004°55'0 0.0
2019-Oct-19 09:27N 52°22' E 004°55'0 0.0
2019-Oct-19 08:51N 52°22' E 004°55'0 0.0
2019-Oct-19 08:30N 52°22' E 004°55'0 0.0
2019-Oct-19 07:57N 52°22' E 004°55'0 0.0
2019-Oct-19 07:30N 52°22' E 004°55'0 0.0
2019-Oct-19 07:00N 52°22' E 004°55'0 0.0
2019-Oct-19 06:30N 52°22' E 004°55'0 0.0
2019-Oct-19 05:57N 52°22' E 004°55'0 0.0
2019-Oct-19 05:30N 52°22' E 004°55'0 0.0
2019-Oct-19 04:57N 52°22' E 004°55'0 0.0
2019-Oct-19 04:30N 52°22' E 004°55'0 0.0
2019-Oct-19 03:54N 52°22' E 004°55'0 0.0
2019-Oct-19 03:27N 52°22' E 004°55'0 0.0
2019-Oct-19 02:57N 52°22' E 004°55'0 0.0
2019-Oct-19 02:30N 52°22' E 004°55'0 0.0
2019-Oct-19 01:57N 52°22' E 004°55'0 0.0
2019-Oct-19 01:30N 52°22' E 004°55'0 0.0
2019-Oct-19 01:00N 52°22' E 004°55'0 0.3
2019-Oct-19 00:30N 52°22' E 004°55'0 0.4
2019-Oct-19 00:00N 52°23' E 004°55'0 0.3
2019-Oct-18 23:31N 52°23' E 004°55'0 0.7
2019-Oct-18 22:59N 52°23' E 004°55'0 0.0
2019-Oct-18 22:29N 52°23' E 004°55'0 0.0
2019-Oct-18 21:59N 52°23' E 004°55'0 0.0
2019-Oct-18 21:29N 52°23' E 004°55'0 0.0
2019-Oct-18 20:59N 52°23' E 004°55'0 0.0
2019-Oct-18 20:29N 52°23' E 004°55'0 0.0
2019-Oct-18 19:59N 52°23' E 004°55'0 0.0
2019-Oct-18 19:29N 52°23' E 004°55'0 0.0
2019-Oct-18 18:59N 52°23' E 004°55'0 0.0
2019-Oct-18 18:29N 52°23' E 004°55'0 0.0
2019-Oct-18 17:59N 52°23' E 004°55'0 0.0
2019-Oct-18 17:29N 52°23' E 004°55'0 0.0
2019-Oct-18 16:59N 52°23' E 004°55'0 0.0
2019-Oct-18 16:29N 52°23' E 004°55'0 0.0
2019-Oct-18 15:59N 52°23' E 004°55'0 0.0
2019-Oct-18 15:29N 52°23' E 004°55'0 0.0
2019-Oct-18 14:59N 52°23' E 004°55'0 0.0
2019-Oct-18 14:29N 52°23' E 004°55'0 0.0
2019-Oct-18 13:59N 52°23' E 004°55'0 0.0
2019-Oct-18 13:29N 52°23' E 004°55'0 0.0
2019-Oct-18 12:59N 52°23' E 004°55'0 0.0
2019-Oct-18 12:29N 52°23' E 004°55'1 1.5
2019-Oct-18 12:00N 52°23' E 004°54'3 5.8
2019-Oct-18 11:30N 52°25' E 004°51'3 5.7
2019-Oct-18 11:00N 52°26' E 004°46'3 5.6
2019-Oct-18 10:31N 52°25' E 004°51'  

Dump ship's entire track history